sensor_id;sensor_type;location;lat;lon;timestamp;P1;durP1;ratioP1;P2;durP2;ratioP2
44189;SDS011;29856;52.144;5.430;2024-02-21T00:01:15;22.98;;;4.20;;
44189;SDS011;29856;52.144;5.430;2024-02-21T00:03:41;14.30;;;4.18;;
44189;SDS011;29856;52.144;5.430;2024-02-21T00:06:07;15.80;;;3.92;;
44189;SDS011;29856;52.144;5.430;2024-02-21T00:08:33;20.85;;;4.57;;
44189;SDS011;29856;52.144;5.430;2024-02-21T00:10:59;17.30;;;4.45;;
44189;SDS011;29856;52.144;5.430;2024-02-21T00:13:25;17.65;;;4.50;;
44189;SDS011;29856;52.144;5.430;2024-02-21T00:15:51;15.30;;;3.85;;
44189;SDS011;29856;52.144;5.430;2024-02-21T00:18:17;15.10;;;3.47;;
44189;SDS011;29856;52.144;5.430;2024-02-21T00:20:42;12.90;;;3.80;;
44189;SDS011;29856;52.144;5.430;2024-02-21T00:23:08;15.20;;;4.00;;
44189;SDS011;29856;52.144;5.430;2024-02-21T00:25:34;11.25;;;3.65;;
44189;SDS011;29856;52.144;5.430;2024-02-21T00:28:00;21.48;;;4.57;;
44189;SDS011;29856;52.144;5.430;2024-02-21T00:30:26;12.30;;;3.97;;
44189;SDS011;29856;52.144;5.430;2024-02-21T00:32:52;12.70;;;3.88;;
44189;SDS011;29856;52.144;5.430;2024-02-21T00:35:18;15.80;;;4.20;;
44189;SDS011;29856;52.144;5.430;2024-02-21T00:37:43;11.23;;;3.40;;
44189;SDS011;29856;52.144;5.430;2024-02-21T00:40:09;14.00;;;2.88;;
44189;SDS011;29856;52.144;5.430;2024-02-21T00:42:36;16.70;;;3.40;;
44189;SDS011;29856;52.144;5.430;2024-02-21T00:45:01;19.15;;;3.97;;
44189;SDS011;29856;52.144;5.430;2024-02-21T00:47:27;12.70;;;3.90;;
44189;SDS011;29856;52.144;5.430;2024-02-21T00:49:53;21.38;;;4.40;;
44189;SDS011;29856;52.144;5.430;2024-02-21T00:52:19;8.25;;;2.70;;
44189;SDS011;29856;52.144;5.430;2024-02-21T00:54:45;28.10;;;5.25;;
44189;SDS011;29856;52.144;5.430;2024-02-21T00:57:11;12.85;;;3.08;;
44189;SDS011;29856;52.144;5.430;2024-02-21T00:59:37;23.60;;;3.67;;
44189;SDS011;29856;52.144;5.430;2024-02-21T01:02:03;20.90;;;3.75;;
44189;SDS011;29856;52.144;5.430;2024-02-21T01:04:29;18.33;;;3.58;;
44189;SDS011;29856;52.144;5.430;2024-02-21T01:06:55;19.35;;;4.22;;
44189;SDS011;29856;52.144;5.430;2024-02-21T01:09:21;16.55;;;3.80;;
44189;SDS011;29856;52.144;5.430;2024-02-21T01:11:47;16.67;;;4.65;;
44189;SDS011;29856;52.144;5.430;2024-02-21T01:14:12;17.25;;;4.03;;
44189;SDS011;29856;52.144;5.430;2024-02-21T01:16:38;19.27;;;5.13;;
44189;SDS011;29856;52.144;5.430;2024-02-21T01:19:04;18.30;;;4.80;;
44189;SDS011;29856;52.144;5.430;2024-02-21T01:21:30;17.73;;;4.97;;
44189;SDS011;29856;52.144;5.430;2024-02-21T01:23:56;17.88;;;4.55;;
44189;SDS011;29856;52.144;5.430;2024-02-21T01:26:22;14.30;;;4.97;;
44189;SDS011;29856;52.144;5.430;2024-02-21T01:28:48;25.23;;;8.70;;
44189;SDS011;29856;52.144;5.430;2024-02-21T01:31:14;22.95;;;5.35;;
44189;SDS011;29856;52.144;5.430;2024-02-21T01:33:39;24.63;;;6.88;;
44189;SDS011;29856;52.144;5.430;2024-02-21T01:36:05;18.23;;;7.60;;
44189;SDS011;29856;52.144;5.430;2024-02-21T01:38:31;18.35;;;7.38;;
44189;SDS011;29856;52.144;5.430;2024-02-21T01:40:57;27.10;;;8.13;;
44189;SDS011;29856;52.144;5.430;2024-02-21T01:43:23;31.10;;;11.73;;
44189;SDS011;29856;52.144;5.430;2024-02-21T01:45:50;32.13;;;12.23;;
44189;SDS011;29856;52.144;5.430;2024-02-21T01:48:17;27.23;;;9.07;;
44189;SDS011;29856;52.144;5.430;2024-02-21T01:50:44;38.30;;;15.45;;
44189;SDS011;29856;52.144;5.430;2024-02-21T01:53:10;27.63;;;9.15;;
44189;SDS011;29856;52.144;5.430;2024-02-21T01:55:36;28.55;;;7.25;;
44189;SDS011;29856;52.144;5.430;2024-02-21T01:58:02;20.70;;;5.60;;
44189;SDS011;29856;52.144;5.430;2024-02-21T02:00:29;25.70;;;9.23;;
44189;SDS011;29856;52.144;5.430;2024-02-21T02:02:56;29.65;;;9.98;;
44189;SDS011;29856;52.144;5.430;2024-02-21T02:05:22;20.83;;;8.15;;
44189;SDS011;29856;52.144;5.430;2024-02-21T02:07:48;28.90;;;8.75;;
44189;SDS011;29856;52.144;5.430;2024-02-21T02:10:14;20.95;;;8.27;;
44189;SDS011;29856;52.144;5.430;2024-02-21T02:12:40;23.30;;;8.93;;
44189;SDS011;29856;52.144;5.430;2024-02-21T02:15:06;16.95;;;6.80;;
44189;SDS011;29856;52.144;5.430;2024-02-21T02:17:32;21.73;;;6.38;;
44189;SDS011;29856;52.144;5.430;2024-02-21T02:19:58;21.33;;;7.53;;
44189;SDS011;29856;52.144;5.430;2024-02-21T02:22:26;22.48;;;9.63;;
44189;SDS011;29856;52.144;5.430;2024-02-21T02:24:53;28.48;;;8.68;;
44189;SDS011;29856;52.144;5.430;2024-02-21T02:27:20;21.35;;;7.07;;
44189;SDS011;29856;52.144;5.430;2024-02-21T02:29:45;16.58;;;5.63;;
44189;SDS011;29856;52.144;5.430;2024-02-21T02:32:11;21.40;;;6.80;;
44189;SDS011;29856;52.144;5.430;2024-02-21T02:34:37;15.80;;;5.57;;
44189;SDS011;29856;52.144;5.430;2024-02-21T02:37:03;21.90;;;8.73;;
44189;SDS011;29856;52.144;5.430;2024-02-21T02:39:29;21.73;;;6.78;;
44189;SDS011;29856;52.144;5.430;2024-02-21T02:41:55;19.77;;;5.75;;
44189;SDS011;29856;52.144;5.430;2024-02-21T02:44:21;20.33;;;6.45;;
44189;SDS011;29856;52.144;5.430;2024-02-21T02:46:47;18.40;;;6.00;;
44189;SDS011;29856;52.144;5.430;2024-02-21T02:49:12;15.77;;;7.13;;
44189;SDS011;29856;52.144;5.430;2024-02-21T02:51:42;19.70;;;7.05;;
44189;SDS011;29856;52.144;5.430;2024-02-21T02:54:08;19.15;;;7.25;;
44189;SDS011;29856;52.144;5.430;2024-02-21T02:56:34;14.80;;;5.28;;
44189;SDS011;29856;52.144;5.430;2024-02-21T02:58:59;17.92;;;6.50;;
44189;SDS011;29856;52.144;5.430;2024-02-21T03:01:25;15.73;;;6.20;;
44189;SDS011;29856;52.144;5.430;2024-02-21T03:03:51;22.60;;;8.25;;
44189;SDS011;29856;52.144;5.430;2024-02-21T03:06:17;18.75;;;6.13;;
44189;SDS011;29856;52.144;5.430;2024-02-21T03:08:43;17.05;;;6.22;;
44189;SDS011;29856;52.144;5.430;2024-02-21T03:11:09;18.20;;;5.75;;
44189;SDS011;29856;52.144;5.430;2024-02-21T03:13:35;17.70;;;6.32;;
44189;SDS011;29856;52.144;5.430;2024-02-21T03:16:01;19.42;;;6.22;;
44189;SDS011;29856;52.144;5.430;2024-02-21T03:18:26;19.08;;;6.55;;
44189;SDS011;29856;52.144;5.430;2024-02-21T03:20:52;21.05;;;5.53;;
44189;SDS011;29856;52.144;5.430;2024-02-21T03:23:18;22.70;;;6.20;;
44189;SDS011;29856;52.144;5.430;2024-02-21T03:25:44;15.82;;;5.65;;
44189;SDS011;29856;52.144;5.430;2024-02-21T03:28:10;19.17;;;5.60;;
44189;SDS011;29856;52.144;5.430;2024-02-21T03:30:36;20.85;;;5.57;;
44189;SDS011;29856;52.144;5.430;2024-02-21T03:33:02;20.05;;;5.53;;
44189;SDS011;29856;52.144;5.430;2024-02-21T03:35:28;19.60;;;6.32;;
44189;SDS011;29856;52.144;5.430;2024-02-21T03:37:54;20.00;;;6.03;;
44189;SDS011;29856;52.144;5.430;2024-02-21T03:40:20;17.35;;;5.90;;
44189;SDS011;29856;52.144;5.430;2024-02-21T03:42:45;17.63;;;5.88;;
44189;SDS011;29856;52.144;5.430;2024-02-21T03:45:11;19.77;;;6.05;;
44189;SDS011;29856;52.144;5.430;2024-02-21T03:47:37;19.27;;;6.53;;
44189;SDS011;29856;52.144;5.430;2024-02-21T03:50:03;23.27;;;6.55;;
44189;SDS011;29856;52.144;5.430;2024-02-21T03:52:29;15.43;;;5.95;;
44189;SDS011;29856;52.144;5.430;2024-02-21T03:54:55;19.20;;;7.10;;
44189;SDS011;29856;52.144;5.430;2024-02-21T03:57:21;19.05;;;7.07;;
44189;SDS011;29856;52.144;5.430;2024-02-21T03:59:50;15.35;;;7.18;;
44189;SDS011;29856;52.144;5.430;2024-02-21T04:02:16;18.23;;;6.00;;
44189;SDS011;29856;52.144;5.430;2024-02-21T04:04:44;18.35;;;6.20;;
44189;SDS011;29856;52.144;5.430;2024-02-21T04:07:10;16.20;;;6.35;;
44189;SDS011;29856;52.144;5.430;2024-02-21T04:09:36;18.58;;;6.28;;
44189;SDS011;29856;52.144;5.430;2024-02-21T04:12:02;18.52;;;5.72;;
44189;SDS011;29856;52.144;5.430;2024-02-21T04:14:28;16.27;;;5.90;;
44189;SDS011;29856;52.144;5.430;2024-02-21T04:16:54;17.13;;;5.68;;
44189;SDS011;29856;52.144;5.430;2024-02-21T04:19:20;12.10;;;4.97;;
44189;SDS011;29856;52.144;5.430;2024-02-21T04:21:46;17.73;;;6.05;;
44189;SDS011;29856;52.144;5.430;2024-02-21T04:24:12;19.20;;;5.97;;
44189;SDS011;29856;52.144;5.430;2024-02-21T04:26:37;19.25;;;5.80;;
44189;SDS011;29856;52.144;5.430;2024-02-21T04:29:03;18.02;;;6.43;;
44189;SDS011;29856;52.144;5.430;2024-02-21T04:31:31;20.23;;;5.65;;
44189;SDS011;29856;52.144;5.430;2024-02-21T04:33:57;15.90;;;5.47;;
44189;SDS011;29856;52.144;5.430;2024-02-21T04:36:23;16.88;;;5.75;;
44189;SDS011;29856;52.144;5.430;2024-02-21T04:38:49;15.35;;;5.15;;
44189;SDS011;29856;52.144;5.430;2024-02-21T04:41:15;12.23;;;5.85;;
44189;SDS011;29856;52.144;5.430;2024-02-21T04:43:41;16.27;;;6.20;;
44189;SDS011;29856;52.144;5.430;2024-02-21T04:46:07;17.08;;;6.05;;
44189;SDS011;29856;52.144;5.430;2024-02-21T04:48:33;14.52;;;5.13;;
44189;SDS011;29856;52.144;5.430;2024-02-21T04:50:59;13.05;;;5.18;;
44189;SDS011;29856;52.144;5.430;2024-02-21T04:53:24;15.43;;;6.15;;
44189;SDS011;29856;52.144;5.430;2024-02-21T04:55:50;11.77;;;5.03;;
44189;SDS011;29856;52.144;5.430;2024-02-21T04:58:16;19.02;;;5.88;;
44189;SDS011;29856;52.144;5.430;2024-02-21T05:00:42;15.98;;;5.78;;
44189;SDS011;29856;52.144;5.430;2024-02-21T05:03:08;11.15;;;5.25;;
44189;SDS011;29856;52.144;5.430;2024-02-21T05:05:34;15.63;;;6.10;;
44189;SDS011;29856;52.144;5.430;2024-02-21T05:08:00;17.10;;;5.82;;
44189;SDS011;29856;52.144;5.430;2024-02-21T05:10:26;12.80;;;6.05;;
44189;SDS011;29856;52.144;5.430;2024-02-21T05:12:51;18.27;;;6.47;;
44189;SDS011;29856;52.144;5.430;2024-02-21T05:15:17;9.90;;;5.65;;
44189;SDS011;29856;52.144;5.430;2024-02-21T05:17:43;12.30;;;5.40;;
44189;SDS011;29856;52.144;5.430;2024-02-21T05:20:09;10.98;;;5.60;;
44189;SDS011;29856;52.144;5.430;2024-02-21T05:22:35;12.02;;;6.22;;
44189;SDS011;29856;52.144;5.430;2024-02-21T05:25:01;9.15;;;5.43;;
44189;SDS011;29856;52.144;5.430;2024-02-21T05:27:27;10.23;;;5.90;;
44189;SDS011;29856;52.144;5.430;2024-02-21T05:29:53;13.43;;;6.38;;
44189;SDS011;29856;52.144;5.430;2024-02-21T05:32:19;13.52;;;6.18;;
44189;SDS011;29856;52.144;5.430;2024-02-21T05:34:48;12.07;;;5.65;;
44189;SDS011;29856;52.144;5.430;2024-02-21T05:37:14;11.52;;;5.45;;
44189;SDS011;29856;52.144;5.430;2024-02-21T05:39:39;12.95;;;6.30;;
44189;SDS011;29856;52.144;5.430;2024-02-21T05:42:05;13.35;;;6.50;;
44189;SDS011;29856;52.144;5.430;2024-02-21T05:44:31;10.35;;;6.10;;
44189;SDS011;29856;52.144;5.430;2024-02-21T05:46:57;11.88;;;5.95;;
44189;SDS011;29856;52.144;5.430;2024-02-21T05:49:23;18.63;;;6.57;;
44189;SDS011;29856;52.144;5.430;2024-02-21T05:51:49;15.98;;;7.13;;
44189;SDS011;29856;52.144;5.430;2024-02-21T05:54:15;10.57;;;6.10;;
44189;SDS011;29856;52.144;5.430;2024-02-21T05:56:44;14.77;;;6.20;;
44189;SDS011;29856;52.144;5.430;2024-02-21T05:59:10;11.43;;;5.38;;
44189;SDS011;29856;52.144;5.430;2024-02-21T06:01:36;16.80;;;6.85;;
44189;SDS011;29856;52.144;5.430;2024-02-21T06:04:02;12.05;;;5.97;;
44189;SDS011;29856;52.144;5.430;2024-02-21T06:06:28;13.85;;;6.95;;
44189;SDS011;29856;52.144;5.430;2024-02-21T06:08:54;14.05;;;6.45;;
44189;SDS011;29856;52.144;5.430;2024-02-21T06:11:20;13.90;;;6.93;;
44189;SDS011;29856;52.144;5.430;2024-02-21T06:13:45;15.25;;;7.45;;
44189;SDS011;29856;52.144;5.430;2024-02-21T06:16:11;18.95;;;7.50;;
44189;SDS011;29856;52.144;5.430;2024-02-21T06:18:38;13.73;;;7.05;;
44189;SDS011;29856;52.144;5.430;2024-02-21T06:21:04;12.07;;;6.60;;
44189;SDS011;29856;52.144;5.430;2024-02-21T06:23:30;20.55;;;7.32;;
44189;SDS011;29856;52.144;5.430;2024-02-21T06:25:56;15.93;;;8.35;;
44189;SDS011;29856;52.144;5.430;2024-02-21T06:28:22;13.73;;;6.25;;
44189;SDS011;29856;52.144;5.430;2024-02-21T06:30:48;11.48;;;6.35;;
44189;SDS011;29856;52.144;5.430;2024-02-21T06:33:14;14.32;;;7.20;;
44189;SDS011;29856;52.144;5.430;2024-02-21T06:35:40;18.60;;;7.72;;
44189;SDS011;29856;52.144;5.430;2024-02-21T06:38:05;18.33;;;8.88;;
44189;SDS011;29856;52.144;5.430;2024-02-21T06:40:32;21.98;;;10.27;;
44189;SDS011;29856;52.144;5.430;2024-02-21T06:42:58;18.95;;;9.88;;
44189;SDS011;29856;52.144;5.430;2024-02-21T06:45:24;21.05;;;10.60;;
44189;SDS011;29856;52.144;5.430;2024-02-21T06:47:50;20.17;;;10.88;;
44189;SDS011;29856;52.144;5.430;2024-02-21T06:50:16;22.65;;;11.07;;
44189;SDS011;29856;52.144;5.430;2024-02-21T06:52:41;17.10;;;9.48;;
44189;SDS011;29856;52.144;5.430;2024-02-21T06:55:07;20.95;;;10.57;;
44189;SDS011;29856;52.144;5.430;2024-02-21T06:57:33;21.00;;;9.73;;
44189;SDS011;29856;52.144;5.430;2024-02-21T06:59:59;24.92;;;11.77;;
44189;SDS011;29856;52.144;5.430;2024-02-21T07:02:25;21.95;;;11.98;;
44189;SDS011;29856;52.144;5.430;2024-02-21T07:04:51;24.13;;;11.30;;
44189;SDS011;29856;52.144;5.430;2024-02-21T07:07:17;27.05;;;12.32;;
44189;SDS011;29856;52.144;5.430;2024-02-21T07:09:43;34.50;;;11.90;;
44189;SDS011;29856;52.144;5.430;2024-02-21T07:12:09;25.58;;;13.95;;
44189;SDS011;29856;52.144;5.430;2024-02-21T07:14:35;26.70;;;13.68;;
44189;SDS011;29856;52.144;5.430;2024-02-21T07:17:01;26.98;;;12.90;;
44189;SDS011;29856;52.144;5.430;2024-02-21T07:19:27;22.92;;;12.15;;
44189;SDS011;29856;52.144;5.430;2024-02-21T07:21:53;28.05;;;13.75;;
44189;SDS011;29856;52.144;5.430;2024-02-21T07:24:19;20.67;;;11.95;;
44189;SDS011;29856;52.144;5.430;2024-02-21T07:26:45;28.58;;;12.35;;
44189;SDS011;29856;52.144;5.430;2024-02-21T07:29:11;34.70;;;12.43;;
44189;SDS011;29856;52.144;5.430;2024-02-21T07:31:43;23.33;;;11.57;;
44189;SDS011;29856;52.144;5.430;2024-02-21T07:34:09;24.58;;;11.40;;
44189;SDS011;29856;52.144;5.430;2024-02-21T07:36:35;24.45;;;11.25;;
44189;SDS011;29856;52.144;5.430;2024-02-21T07:39:01;20.00;;;10.00;;
44189;SDS011;29856;52.144;5.430;2024-02-21T07:41:27;25.88;;;10.55;;
44189;SDS011;29856;52.144;5.430;2024-02-21T07:43:53;20.40;;;10.45;;
44189;SDS011;29856;52.144;5.430;2024-02-21T07:46:19;23.25;;;10.40;;
44189;SDS011;29856;52.144;5.430;2024-02-21T07:48:45;19.02;;;9.07;;
44189;SDS011;29856;52.144;5.430;2024-02-21T07:51:11;21.75;;;10.45;;
44189;SDS011;29856;52.144;5.430;2024-02-21T07:53:38;23.40;;;9.90;;
44189;SDS011;29856;52.144;5.430;2024-02-21T07:56:04;19.35;;;8.77;;
44189;SDS011;29856;52.144;5.430;2024-02-21T07:58:30;23.42;;;9.07;;
44189;SDS011;29856;52.144;5.430;2024-02-21T08:00:56;23.20;;;9.27;;
44189;SDS011;29856;52.144;5.430;2024-02-21T08:03:22;23.45;;;8.90;;
44189;SDS011;29856;52.144;5.430;2024-02-21T08:05:47;21.40;;;9.38;;
44189;SDS011;29856;52.144;5.430;2024-02-21T08:08:13;19.88;;;9.05;;
44189;SDS011;29856;52.144;5.430;2024-02-21T08:10:39;19.80;;;8.82;;
44189;SDS011;29856;52.144;5.430;2024-02-21T08:13:05;20.08;;;9.48;;
44189;SDS011;29856;52.144;5.430;2024-02-21T08:15:31;19.65;;;9.48;;
44189;SDS011;29856;52.144;5.430;2024-02-21T08:17:57;19.15;;;9.32;;
44189;SDS011;29856;52.144;5.430;2024-02-21T08:20:23;28.98;;;9.40;;
44189;SDS011;29856;52.144;5.430;2024-02-21T08:22:49;20.98;;;9.27;;
44189;SDS011;29856;52.144;5.430;2024-02-21T08:25:14;19.83;;;9.05;;
44189;SDS011;29856;52.144;5.430;2024-02-21T08:27:40;19.27;;;9.35;;
44189;SDS011;29856;52.144;5.430;2024-02-21T08:30:06;18.17;;;9.38;;
44189;SDS011;29856;52.144;5.430;2024-02-21T08:32:32;20.75;;;9.88;;
44189;SDS011;29856;52.144;5.430;2024-02-21T08:34:58;22.45;;;11.32;;
44189;SDS011;29856;52.144;5.430;2024-02-21T08:37:24;23.25;;;10.23;;
44189;SDS011;29856;52.144;5.430;2024-02-21T08:39:50;19.40;;;9.38;;
44189;SDS011;29856;52.144;5.430;2024-02-21T08:42:16;18.73;;;9.55;;
44189;SDS011;29856;52.144;5.430;2024-02-21T08:44:42;20.90;;;10.88;;
44189;SDS011;29856;52.144;5.430;2024-02-21T08:47:07;21.40;;;10.82;;
44189;SDS011;29856;52.144;5.430;2024-02-21T08:49:33;24.30;;;10.48;;
44189;SDS011;29856;52.144;5.430;2024-02-21T08:51:59;25.38;;;10.65;;
44189;SDS011;29856;52.144;5.430;2024-02-21T08:54:26;19.05;;;10.98;;
44189;SDS011;29856;52.144;5.430;2024-02-21T08:56:52;19.80;;;10.77;;
44189;SDS011;29856;52.144;5.430;2024-02-21T08:59:19;19.20;;;9.38;;
44189;SDS011;29856;52.144;5.430;2024-02-21T09:01:45;22.85;;;10.40;;
44189;SDS011;29856;52.144;5.430;2024-02-21T09:04:11;27.63;;;10.98;;
44189;SDS011;29856;52.144;5.430;2024-02-21T09:06:37;19.08;;;9.98;;
44189;SDS011;29856;52.144;5.430;2024-02-21T09:09:03;18.23;;;9.38;;
44189;SDS011;29856;52.144;5.430;2024-02-21T09:11:28;18.80;;;9.32;;
44189;SDS011;29856;52.144;5.430;2024-02-21T09:13:55;17.95;;;9.30;;
44189;SDS011;29856;52.144;5.430;2024-02-21T09:16:21;18.33;;;9.65;;
44189;SDS011;29856;52.144;5.430;2024-02-21T09:18:47;19.80;;;9.65;;
44189;SDS011;29856;52.144;5.430;2024-02-21T09:21:12;26.95;;;9.32;;
44189;SDS011;29856;52.144;5.430;2024-02-21T09:23:38;17.95;;;8.85;;
44189;SDS011;29856;52.144;5.430;2024-02-21T09:26:04;19.13;;;8.98;;
44189;SDS011;29856;52.144;5.430;2024-02-21T09:28:30;16.13;;;8.38;;
44189;SDS011;29856;52.144;5.430;2024-02-21T09:30:56;25.13;;;9.80;;
44189;SDS011;29856;52.144;5.430;2024-02-21T09:33:22;16.65;;;8.07;;
44189;SDS011;29856;52.144;5.430;2024-02-21T09:35:48;15.75;;;7.97;;
44189;SDS011;29856;52.144;5.430;2024-02-21T09:38:13;15.27;;;7.57;;
44189;SDS011;29856;52.144;5.430;2024-02-21T09:40:39;15.27;;;7.82;;
44189;SDS011;29856;52.144;5.430;2024-02-21T09:43:05;16.15;;;7.93;;
44189;SDS011;29856;52.144;5.430;2024-02-21T09:45:31;15.73;;;7.70;;
44189;SDS011;29856;52.144;5.430;2024-02-21T09:48:14;15.52;;;7.18;;
44189;SDS011;29856;52.144;5.430;2024-02-21T09:50:40;16.38;;;7.35;;
44189;SDS011;29856;52.144;5.430;2024-02-21T09:53:09;17.77;;;8.20;;
44189;SDS011;29856;52.144;5.430;2024-02-21T09:55:37;18.73;;;7.28;;
44189;SDS011;29856;52.144;5.430;2024-02-21T09:58:03;12.98;;;6.93;;
44189;SDS011;29856;52.144;5.430;2024-02-21T10:00:29;10.93;;;6.93;;
44189;SDS011;29856;52.144;5.430;2024-02-21T10:02:55;15.25;;;6.93;;
44189;SDS011;29856;52.144;5.430;2024-02-21T10:05:21;13.07;;;7.03;;
44189;SDS011;29856;52.144;5.430;2024-02-21T10:07:48;16.13;;;7.68;;
44189;SDS011;29856;52.144;5.430;2024-02-21T10:10:14;12.00;;;6.35;;
44189;SDS011;29856;52.144;5.430;2024-02-21T10:12:50;13.27;;;7.28;;
44189;SDS011;29856;52.144;5.430;2024-02-21T10:15:19;17.45;;;7.57;;
44189;SDS011;29856;52.144;5.430;2024-02-21T10:17:45;14.52;;;6.10;;
44189;SDS011;29856;52.144;5.430;2024-02-21T10:20:11;13.43;;;6.53;;
44189;SDS011;29856;52.144;5.430;2024-02-21T10:22:37;11.63;;;6.55;;
44189;SDS011;29856;52.144;5.430;2024-02-21T10:25:10;13.52;;;6.22;;
44189;SDS011;29856;52.144;5.430;2024-02-21T10:27:36;12.52;;;6.38;;
44189;SDS011;29856;52.144;5.430;2024-02-21T10:30:03;14.65;;;6.50;;
44189;SDS011;29856;52.144;5.430;2024-02-21T10:32:29;11.18;;;6.03;;
44189;SDS011;29856;52.144;5.430;2024-02-21T10:35:02;11.20;;;5.68;;
44189;SDS011;29856;52.144;5.430;2024-02-21T10:37:28;11.55;;;5.60;;
44189;SDS011;29856;52.144;5.430;2024-02-21T10:39:54;11.98;;;5.65;;
44189;SDS011;29856;52.144;5.430;2024-02-21T10:42:21;11.95;;;5.80;;
44189;SDS011;29856;52.144;5.430;2024-02-21T10:44:47;11.20;;;5.45;;
44189;SDS011;29856;52.144;5.430;2024-02-21T10:47:13;10.32;;;4.97;;
44189;SDS011;29856;52.144;5.430;2024-02-21T10:49:42;11.02;;;5.78;;
44189;SDS011;29856;52.144;5.430;2024-02-21T10:55:04;8.00;;;4.43;;
44189;SDS011;29856;52.144;5.430;2024-02-21T10:57:33;6.72;;;3.97;;
44189;SDS011;29856;52.144;5.430;2024-02-21T11:00:00;7.28;;;4.75;;
44189;SDS011;29856;52.144;5.430;2024-02-21T11:02:26;6.47;;;4.30;;
44189;SDS011;29856;52.144;5.430;2024-02-21T11:04:53;7.43;;;4.68;;
44189;SDS011;29856;52.144;5.430;2024-02-21T11:07:20;8.65;;;4.93;;
44189;SDS011;29856;52.144;5.430;2024-02-21T11:09:53;7.13;;;5.03;;
44189;SDS011;29856;52.144;5.430;2024-02-21T11:12:22;7.88;;;5.57;;
44189;SDS011;29856;52.144;5.430;2024-02-21T11:14:48;9.98;;;5.72;;
44189;SDS011;29856;52.144;5.430;2024-02-21T11:17:17;8.07;;;5.50;;
44189;SDS011;29856;52.144;5.430;2024-02-21T11:19:43;8.60;;;5.60;;
44189;SDS011;29856;52.144;5.430;2024-02-21T11:22:15;9.70;;;5.72;;
44189;SDS011;29856;52.144;5.430;2024-02-21T11:24:41;10.48;;;5.82;;
44189;SDS011;29856;52.144;5.430;2024-02-21T11:27:18;11.30;;;5.57;;
44189;SDS011;29856;52.144;5.430;2024-02-21T11:32:10;10.65;;;5.70;;
44189;SDS011;29856;52.144;5.430;2024-02-21T11:34:36;11.35;;;5.57;;
44189;SDS011;29856;52.144;5.430;2024-02-21T11:37:02;8.75;;;5.55;;
44189;SDS011;29856;52.144;5.430;2024-02-21T11:39:38;8.00;;;5.95;;
44189;SDS011;29856;52.144;5.430;2024-02-21T11:42:04;9.73;;;5.68;;
44189;SDS011;29856;52.144;5.430;2024-02-21T11:44:31;7.85;;;5.82;;
44189;SDS011;29856;52.144;5.430;2024-02-21T11:46:57;9.98;;;5.68;;
44189;SDS011;29856;52.144;5.430;2024-02-21T11:49:29;6.90;;;5.43;;
44189;SDS011;29856;52.144;5.430;2024-02-21T11:52:02;7.97;;;5.65;;
44189;SDS011;29856;52.144;5.430;2024-02-21T11:54:28;11.70;;;6.03;;
44189;SDS011;29856;52.144;5.430;2024-02-21T11:56:54;10.23;;;5.82;;
44189;SDS011;29856;52.144;5.430;2024-02-21T11:59:20;11.70;;;6.40;;
44189;SDS011;29856;52.144;5.430;2024-02-21T12:01:46;12.48;;;6.38;;
44189;SDS011;29856;52.144;5.430;2024-02-21T12:04:12;12.50;;;6.03;;
44189;SDS011;29856;52.144;5.430;2024-02-21T12:06:38;8.40;;;5.70;;
44189;SDS011;29856;52.144;5.430;2024-02-21T12:09:04;11.48;;;6.43;;
44189;SDS011;29856;52.144;5.430;2024-02-21T12:11:30;8.88;;;5.90;;
44189;SDS011;29856;52.144;5.430;2024-02-21T12:14:02;13.68;;;6.32;;
44189;SDS011;29856;52.144;5.430;2024-02-21T12:16:29;11.50;;;6.07;;
44189;SDS011;29856;52.144;5.430;2024-02-21T12:18:55;12.35;;;7.00;;
44189;SDS011;29856;52.144;5.430;2024-02-21T12:21:25;12.23;;;5.35;;
44189;SDS011;29856;52.144;5.430;2024-02-21T12:23:51;12.02;;;6.47;;
44189;SDS011;29856;52.144;5.430;2024-02-21T12:26:17;17.85;;;6.63;;
44189;SDS011;29856;52.144;5.430;2024-02-21T12:28:43;10.23;;;6.00;;
44189;SDS011;29856;52.144;5.430;2024-02-21T12:31:09;10.38;;;5.60;;
44189;SDS011;29856;52.144;5.430;2024-02-21T12:33:35;12.40;;;5.75;;
44189;SDS011;29856;52.144;5.430;2024-02-21T12:36:01;12.15;;;5.47;;
44189;SDS011;29856;52.144;5.430;2024-02-21T12:38:26;9.15;;;5.75;;
44189;SDS011;29856;52.144;5.430;2024-02-21T12:40:52;10.00;;;5.70;;
44189;SDS011;29856;52.144;5.430;2024-02-21T12:43:18;12.82;;;5.85;;
44189;SDS011;29856;52.144;5.430;2024-02-21T12:45:44;11.20;;;5.32;;
44189;SDS011;29856;52.144;5.430;2024-02-21T12:48:10;11.68;;;5.32;;
44189;SDS011;29856;52.144;5.430;2024-02-21T12:50:36;9.05;;;4.68;;
44189;SDS011;29856;52.144;5.430;2024-02-21T12:53:02;16.15;;;7.78;;
44189;SDS011;29856;52.144;5.430;2024-02-21T12:55:28;8.65;;;5.07;;
44189;SDS011;29856;52.144;5.430;2024-02-21T12:57:53;11.15;;;6.57;;
44189;SDS011;29856;52.144;5.430;2024-02-21T13:00:19;9.93;;;5.38;;
44189;SDS011;29856;52.144;5.430;2024-02-21T13:02:45;8.80;;;4.55;;
44189;SDS011;29856;52.144;5.430;2024-02-21T13:05:11;10.68;;;5.25;;
44189;SDS011;29856;52.144;5.430;2024-02-21T13:07:37;11.75;;;5.70;;
44189;SDS011;29856;52.144;5.430;2024-02-21T13:10:03;24.27;;;9.00;;
44189;SDS011;29856;52.144;5.430;2024-02-21T13:12:29;21.48;;;8.35;;
44189;SDS011;29856;52.144;5.430;2024-02-21T13:14:55;26.45;;;11.27;;
44189;SDS011;29856;52.144;5.430;2024-02-21T13:17:21;10.82;;;4.82;;
44189;SDS011;29856;52.144;5.430;2024-02-21T13:19:47;10.50;;;5.88;;
44189;SDS011;29856;52.144;5.430;2024-02-21T13:22:12;10.43;;;4.60;;
44189;SDS011;29856;52.144;5.430;2024-02-21T13:24:38;10.40;;;4.88;;
44189;SDS011;29856;52.144;5.430;2024-02-21T13:27:04;12.90;;;3.75;;
44189;SDS011;29856;52.144;5.430;2024-02-21T13:29:30;11.20;;;4.93;;
44189;SDS011;29856;52.144;5.430;2024-02-21T13:31:56;8.07;;;3.75;;
44189;SDS011;29856;52.144;5.430;2024-02-21T13:34:22;10.20;;;3.88;;
44189;SDS011;29856;52.144;5.430;2024-02-21T13:36:48;10.75;;;3.67;;
44189;SDS011;29856;52.144;5.430;2024-02-21T13:39:14;8.13;;;3.80;;
44189;SDS011;29856;52.144;5.430;2024-02-21T13:41:39;8.30;;;3.65;;
44189;SDS011;29856;52.144;5.430;2024-02-21T13:44:05;8.80;;;3.65;;
44189;SDS011;29856;52.144;5.430;2024-02-21T13:46:31;10.98;;;4.15;;
44189;SDS011;29856;52.144;5.430;2024-02-21T13:49:02;14.70;;;4.00;;
44189;SDS011;29856;52.144;5.430;2024-02-21T13:51:28;7.90;;;3.42;;
44189;SDS011;29856;52.144;5.430;2024-02-21T13:53:54;7.75;;;3.72;;
44189;SDS011;29856;52.144;5.430;2024-02-21T13:56:20;11.63;;;4.07;;
44189;SDS011;29856;52.144;5.430;2024-02-21T13:58:45;10.00;;;4.07;;
44189;SDS011;29856;52.144;5.430;2024-02-21T14:01:12;9.80;;;4.13;;
44189;SDS011;29856;52.144;5.430;2024-02-21T14:03:38;10.48;;;3.90;;
44189;SDS011;29856;52.144;5.430;2024-02-21T14:06:04;10.38;;;3.30;;
44189;SDS011;29856;52.144;5.430;2024-02-21T14:08:30;10.48;;;3.67;;
44189;SDS011;29856;52.144;5.430;2024-02-21T14:10:56;7.32;;;3.42;;
44189;SDS011;29856;52.144;5.430;2024-02-21T14:13:22;9.35;;;3.35;;
44189;SDS011;29856;52.144;5.430;2024-02-21T14:15:48;10.00;;;3.47;;
44189;SDS011;29856;52.144;5.430;2024-02-21T14:18:14;60.95;;;16.75;;
44189;SDS011;29856;52.144;5.430;2024-02-21T14:20:39;36.33;;;10.52;;
44189;SDS011;29856;52.144;5.430;2024-02-21T14:23:05;11.88;;;4.18;;
44189;SDS011;29856;52.144;5.430;2024-02-21T14:25:31;12.27;;;4.35;;
44189;SDS011;29856;52.144;5.430;2024-02-21T14:27:57;8.57;;;3.42;;
44189;SDS011;29856;52.144;5.430;2024-02-21T14:30:23;12.20;;;3.65;;
44189;SDS011;29856;52.144;5.430;2024-02-21T14:32:49;12.25;;;3.90;;